createdAt,value
2019-05-15T00:01:59.612Z,10.40
2019-05-15T00:04:52.442Z,10.40
2019-05-15T00:07:22.569Z,10.40
2019-05-15T00:09:52.726Z,10.40
2019-05-15T00:12:22.840Z,10.50
2019-05-15T00:14:52.998Z,10.40
2019-05-15T00:17:49.772Z,10.40
2019-05-15T00:20:20.336Z,10.30
2019-05-15T00:22:50.557Z,10.40
2019-05-15T00:25:22.758Z,10.40
2019-05-15T00:27:52.489Z,10.40
2019-05-15T00:30:22.660Z,10.30
2019-05-15T00:32:52.766Z,10.40
2019-05-15T00:35:22.878Z,10.30
2019-05-15T00:37:53.056Z,10.30
2019-05-15T00:40:23.172Z,10.30
2019-05-15T00:43:11.612Z,10.30
2019-05-15T00:45:44.328Z,10.30
2019-05-15T00:48:13.584Z,10.30
2019-05-15T00:50:43.725Z,10.30
2019-05-15T00:53:13.878Z,10.20
2019-05-15T00:55:43.997Z,10.30
2019-05-15T00:58:14.131Z,10.20
2019-05-15T01:00:45.028Z,10.20
2019-05-15T01:03:27.873Z,10.20
2019-05-15T01:05:58.599Z,10.20
2019-05-15T01:08:28.786Z,10.10
2019-05-15T01:10:58.950Z,10.10
2019-05-15T01:13:29.069Z,10.20
2019-05-15T01:16:19.885Z,10.10
2019-05-15T01:18:50.036Z,10.10
2019-05-15T01:21:20.159Z,10.20
2019-05-15T01:23:50.305Z,10.20
2019-05-15T01:26:20.420Z,10.30
2019-05-15T01:28:50.562Z,10.30
2019-05-15T01:31:20.695Z,10.30
2019-05-15T01:33:50.833Z,10.30
2019-05-15T01:36:20.989Z,10.20
2019-05-15T01:38:51.112Z,10.20
2019-05-15T01:41:21.231Z,10.10
2019-05-15T01:43:51.344Z,10.10
2019-05-15T01:46:21.500Z,10.20
2019-05-15T01:48:51.620Z,10.20
2019-05-15T01:51:21.722Z,10.30
2019-05-15T01:53:52.303Z,10.20
2019-05-15T01:56:22.430Z,10.20
2019-05-15T01:58:52.554Z,10.20
2019-05-15T02:01:22.672Z,10.30
2019-05-15T02:03:52.841Z,10.30
2019-05-15T02:06:23.001Z,10.30
2019-05-15T02:08:53.091Z,10.20
2019-05-15T02:11:23.580Z,10.20
2019-05-15T02:13:53.715Z,10.20
2019-05-15T02:16:23.869Z,10.10
2019-05-15T02:18:53.969Z,10.10
2019-05-15T02:21:24.098Z,10.00
2019-05-15T02:23:54.220Z,10.10
2019-05-15T02:26:24.369Z,10.10
2019-05-15T02:28:54.468Z,10.10
2019-05-15T02:31:24.619Z,10.00
2019-05-15T02:33:54.740Z,9.90
2019-05-15T02:36:24.871Z,9.90
2019-05-15T02:38:54.973Z,10.00
2019-05-15T02:41:25.217Z,10.10
2019-05-15T02:43:55.339Z,10.00
2019-05-15T02:46:25.468Z,10.10
2019-05-15T02:48:55.615Z,10.00
2019-05-15T02:51:25.741Z,9.90
2019-05-15T02:53:58.365Z,10.00
2019-05-15T02:56:29.387Z,10.00
2019-05-15T02:58:59.907Z,9.90
2019-05-15T03:01:53.500Z,10.00
2019-05-15T03:04:23.594Z,10.00
2019-05-15T03:06:53.739Z,10.00
2019-05-15T03:09:23.876Z,10.00
2019-05-15T03:11:54.092Z,9.90
2019-05-15T03:14:24.286Z,10.10
2019-05-15T03:16:54.437Z,10.10
2019-05-15T03:19:29.567Z,10.10
2019-05-15T03:21:59.893Z,10.10
2019-05-15T03:24:30.302Z,10.20
2019-05-15T03:27:00.428Z,10.20
2019-05-15T03:29:30.672Z,10.10
2019-05-15T03:32:18.238Z,10.20
2019-05-15T03:34:38.459Z,10.10
2019-05-15T03:37:04.476Z,10.10
2019-05-15T03:39:34.588Z,10.10
2019-05-15T03:42:04.690Z,10.20
2019-05-15T03:44:34.828Z,10.20
2019-05-15T03:47:04.923Z,10.20
2019-05-15T03:49:35.098Z,10.10
2019-05-15T03:52:05.185Z,10.30
2019-05-15T03:54:35.319Z,10.30
2019-05-15T03:57:22.672Z,10.40
2019-05-15T03:59:49.115Z,10.40
2019-05-15T04:02:19.597Z,10.60
2019-05-15T04:04:50.399Z,10.60
2019-05-15T04:07:20.913Z,10.70
2019-05-15T04:09:51.029Z,10.70
2019-05-15T04:12:21.193Z,10.80
2019-05-15T04:14:51.441Z,11.00
2019-05-15T04:17:21.567Z,11.10
2019-05-15T04:19:51.685Z,11.20
2019-05-15T04:22:21.836Z,11.20
2019-05-15T04:24:52.997Z,11.20
2019-05-15T04:27:24.278Z,11.30
2019-05-15T04:29:54.433Z,11.30
2019-05-15T04:32:24.586Z,11.30
2019-05-15T04:35:10.157Z,11.30
2019-05-15T04:37:41.165Z,11.40
2019-05-15T04:40:11.570Z,11.40
2019-05-15T04:42:41.686Z,11.50
2019-05-15T04:45:11.912Z,11.60
2019-05-15T04:47:42.041Z,11.70
2019-05-15T04:50:12.170Z,11.80
2019-05-15T04:52:43.341Z,11.90
2019-05-15T04:55:13.941Z,11.90
2019-05-15T04:57:44.177Z,11.60
2019-05-15T05:00:14.675Z,11.60
2019-05-15T05:02:44.799Z,11.60
2019-05-15T05:05:15.113Z,11.60
2019-05-15T05:07:45.370Z,11.60
2019-05-15T05:10:15.474Z,11.70
2019-05-15T05:12:50.563Z,11.70
2019-05-15T05:15:19.015Z,11.70
2019-05-15T05:17:49.368Z,11.70
2019-05-15T05:20:19.504Z,11.80
2019-05-15T05:22:49.700Z,11.70
2019-05-15T05:25:19.804Z,11.70
2019-05-15T05:27:49.950Z,11.80
2019-05-15T05:30:20.460Z,11.90
2019-05-15T05:32:50.592Z,11.60
2019-05-15T05:35:20.704Z,11.80
2019-05-15T05:37:50.937Z,12.00
2019-05-15T05:40:21.069Z,12.00
2019-05-15T05:42:51.201Z,12.00
2019-05-15T05:45:21.686Z,12.20
2019-05-15T05:47:51.814Z,12.20
2019-05-15T05:50:44.259Z,12.20
2019-05-15T05:53:14.432Z,12.00
2019-05-15T05:55:44.561Z,12.10
2019-05-15T05:58:14.787Z,12.30
2019-05-15T06:00:48.947Z,12.30
2019-05-15T06:03:19.882Z,12.50
2019-05-15T06:05:50.107Z,12.50
2019-05-15T06:08:20.336Z,12.60
2019-05-15T06:10:50.458Z,12.60
2019-05-15T06:13:20.627Z,12.90
2019-05-15T06:15:50.735Z,13.00
2019-05-15T06:18:20.899Z,13.10
2019-05-15T06:20:52.491Z,13.00
2019-05-15T06:23:24.910Z,13.00
2019-05-15T06:25:54.472Z,13.00
2019-05-15T06:28:24.628Z,13.20
2019-05-15T06:30:54.821Z,13.60
2019-05-15T06:33:24.967Z,13.50
2019-05-15T06:36:02.398Z,13.60
2019-05-15T06:38:32.605Z,13.80
2019-05-15T06:41:02.740Z,13.80
2019-05-15T06:43:32.840Z,13.70
2019-05-15T06:46:02.980Z,13.50
2019-05-15T06:48:33.199Z,13.20
2019-05-15T06:51:03.363Z,13.10
2019-05-15T06:53:33.560Z,13.00
2019-05-15T06:56:03.673Z,12.60
2019-05-15T06:58:58.163Z,12.40
2019-05-15T07:01:29.454Z,12.20
2019-05-15T07:04:19.393Z,12.30
2019-05-15T07:06:49.738Z,12.30
2019-05-15T07:09:19.861Z,12.50
2019-05-15T07:11:49.985Z,12.60
2019-05-15T07:14:20.133Z,12.60
2019-05-15T07:16:50.282Z,12.70
2019-05-15T07:19:20.433Z,13.00
2019-05-15T07:21:50.542Z,12.80
2019-05-15T07:24:20.689Z,12.60
2019-05-15T07:27:04.778Z,12.50
2019-05-15T07:29:34.889Z,12.30
2019-05-15T07:32:04.992Z,12.20
2019-05-15T07:34:35.133Z,12.20
2019-05-15T07:37:05.323Z,11.90
2019-05-15T07:39:38.247Z,12.00
2019-05-15T07:42:08.684Z,12.10
2019-05-15T07:44:39.202Z,12.10
2019-05-15T07:47:09.292Z,11.90
2019-05-15T07:49:39.513Z,12.00
2019-05-15T07:52:09.642Z,12.20
2019-05-15T07:54:39.924Z,12.30
2019-05-15T07:57:10.031Z,12.40
2019-05-15T07:59:40.189Z,12.50
2019-05-15T08:02:10.401Z,12.30
2019-05-15T08:04:40.526Z,12.20
2019-05-15T08:07:10.639Z,12.10
2019-05-15T08:09:40.801Z,12.10
2019-05-15T08:12:19.023Z,12.00
2019-05-15T08:14:50.753Z,11.90
2019-05-15T08:17:22.097Z,11.80
2019-05-15T08:19:51.775Z,12.00
2019-05-15T08:22:21.912Z,12.10
2019-05-15T08:24:52.079Z,12.30
2019-05-15T08:27:41.242Z,12.40
2019-05-15T08:30:12.644Z,12.40
2019-05-15T08:32:42.778Z,12.40
2019-05-15T08:35:15.029Z,12.40
2019-05-15T08:37:45.157Z,12.40
2019-05-15T08:40:17.861Z,12.30
2019-05-15T08:42:56.787Z,12.20
2019-05-15T08:45:19.681Z,12.20
2019-05-15T08:47:49.809Z,12.40
2019-05-15T08:50:20.950Z,12.30
2019-05-15T08:52:51.154Z,12.30
2019-05-15T08:55:22.071Z,12.30
2019-05-15T08:57:55.645Z,12.50
2019-05-15T09:00:24.208Z,12.60
2019-05-15T09:02:54.370Z,12.80
2019-05-15T09:05:24.549Z,12.90
2019-05-15T09:07:54.706Z,13.00
2019-05-15T09:10:24.814Z,13.30
2019-05-15T09:12:54.972Z,13.60
2019-05-15T09:15:25.268Z,13.90
2019-05-15T09:18:08.069Z,14.40
2019-05-15T09:20:28.720Z,14.80
2019-05-15T09:23:04.968Z,15.00
2019-05-15T09:25:35.118Z,15.00
2019-05-15T09:28:25.649Z,14.90
2019-05-15T09:30:55.878Z,14.40
2019-05-15T09:33:28.433Z,14.50
2019-05-15T09:35:58.315Z,13.90
2019-05-15T09:38:29.111Z,14.00
2019-05-15T09:40:59.419Z,13.80
2019-05-15T09:43:29.516Z,13.70
2019-05-15T09:45:59.700Z,13.70
2019-05-15T09:48:29.846Z,13.50
2019-05-15T09:51:00.443Z,13.70
2019-05-15T09:53:30.573Z,13.80
2019-05-15T09:56:02.925Z,13.30
2019-05-15T09:58:33.068Z,13.00
2019-05-15T10:01:19.991Z,13.30
2019-05-15T10:03:50.110Z,13.20
2019-05-15T10:06:20.757Z,13.00
2019-05-15T10:08:51.305Z,13.20
2019-05-15T10:11:21.588Z,13.20
2019-05-15T10:13:51.754Z,13.10
2019-05-15T10:16:21.862Z,12.90
2019-05-15T10:18:52.004Z,13.00
2019-05-15T10:21:22.124Z,13.10
2019-05-15T10:23:52.248Z,13.20
2019-05-15T10:26:22.364Z,13.30
2019-05-15T10:28:52.488Z,13.20
2019-05-15T10:31:22.685Z,13.40
2019-05-15T10:33:52.874Z,13.40
2019-05-15T10:36:23.127Z,13.20
2019-05-15T10:39:14.900Z,13.10
2019-05-15T10:41:45.336Z,13.10
2019-05-15T10:44:17.974Z,13.30
2019-05-15T10:46:48.236Z,13.60
2019-05-15T10:49:19.045Z,13.80
2019-05-15T10:51:51.077Z,13.90
2019-05-15T10:54:21.236Z,14.00
2019-05-15T10:56:51.377Z,14.50
2019-05-15T10:59:21.586Z,14.50
2019-05-15T11:01:52.124Z,14.50
2019-05-15T11:04:22.268Z,14.50
2019-05-15T11:06:52.381Z,14.60
2019-05-15T11:09:22.468Z,14.60
2019-05-15T11:12:13.768Z,14.40
2019-05-15T11:14:43.956Z,14.40
2019-05-15T11:17:14.103Z,14.20
2019-05-15T11:19:44.220Z,14.10
2019-05-15T11:22:14.389Z,13.70
2019-05-15T11:24:44.553Z,13.50
2019-05-15T11:27:14.802Z,13.40
2019-05-15T11:29:44.925Z,13.30
2019-05-15T11:32:15.056Z,13.20
2019-05-15T11:34:49.267Z,13.50
2019-05-15T11:37:19.545Z,13.50
2019-05-15T11:39:49.751Z,13.60
2019-05-15T11:42:20.288Z,13.70
2019-05-15T11:44:53.328Z,13.60
2019-05-15T11:47:22.756Z,13.60
2019-05-15T11:50:10.718Z,13.60
2019-05-15T11:52:40.892Z,13.70
2019-05-15T11:55:33.197Z,13.80
2019-05-15T11:58:03.406Z,13.90
2019-05-15T12:00:33.549Z,13.80
2019-05-15T12:03:03.673Z,13.90
2019-05-15T12:05:33.847Z,14.10
2019-05-15T12:08:03.980Z,14.10
2019-05-15T12:10:34.127Z,14.30
2019-05-15T12:13:04.290Z,14.20
2019-05-15T12:15:34.437Z,14.10
2019-05-15T12:18:04.557Z,14.20
2019-05-15T12:20:34.808Z,14.20
2019-05-15T12:23:04.919Z,14.10
2019-05-15T12:25:35.100Z,14.10
2019-05-15T12:28:24.283Z,14.20
2019-05-15T12:30:54.472Z,14.40
2019-05-15T12:33:42.546Z,14.40
2019-05-15T12:36:13.151Z,14.20
2019-05-15T12:38:43.208Z,14.10
2019-05-15T13:01:29.634Z,15.40
2019-05-15T13:03:59.960Z,15.70
2019-05-15T13:06:30.152Z,15.60
2019-05-15T13:09:00.261Z,15.60
2019-05-15T13:11:38.979Z,15.40
2019-05-15T13:14:09.156Z,15.30
2019-05-15T13:16:58.714Z,15.30
2019-05-15T13:19:23.918Z,15.20
2019-05-15T13:21:54.061Z,15.30
2019-05-15T13:24:24.185Z,15.30
2019-05-15T13:26:54.375Z,15.00
2019-05-15T13:29:24.619Z,15.20
2019-05-15T13:31:54.759Z,15.10
2019-05-15T13:34:25.030Z,14.90
2019-05-15T13:36:55.230Z,15.00
2019-05-15T13:39:25.358Z,14.90
2019-05-15T13:41:55.558Z,15.10
2019-05-15T13:44:25.708Z,15.00
2019-05-15T13:46:58.010Z,15.20
2019-05-15T13:49:50.000Z,15.20
2019-05-15T13:52:20.312Z,15.30
2019-05-15T13:55:11.180Z,15.40
2019-05-15T13:57:41.338Z,15.70
2019-05-15T14:00:12.468Z,16.20
2019-05-15T14:02:42.632Z,16.30
2019-05-15T14:05:13.304Z,16.50
2019-05-15T14:07:49.451Z,16.90
2019-05-15T14:10:15.207Z,16.90
2019-05-15T14:12:47.668Z,17.00
2019-05-15T14:15:17.387Z,16.80
2019-05-15T14:17:48.296Z,17.00
2019-05-15T14:20:19.548Z,17.10
2019-05-15T14:22:49.778Z,16.90
2019-05-15T14:25:20.042Z,16.80
2019-05-15T14:27:50.222Z,16.90
2019-05-15T14:30:20.680Z,16.90
2019-05-15T14:33:08.237Z,16.70
2019-05-15T14:35:38.070Z,16.60
2019-05-15T14:38:29.957Z,16.70
2019-05-15T14:41:00.185Z,16.60
2019-05-15T14:43:30.384Z,16.30
2019-05-15T14:46:00.629Z,16.10
2019-05-15T14:48:30.917Z,15.90
2019-05-15T14:51:01.298Z,15.80
2019-05-15T14:53:31.469Z,15.50
2019-05-15T14:56:01.687Z,15.50
2019-05-15T14:58:31.826Z,15.50
2019-05-15T15:01:03.809Z,15.40
2019-05-15T15:03:33.849Z,15.30
2019-05-15T15:06:03.993Z,15.40
2019-05-15T15:08:34.132Z,15.50
2019-05-15T15:11:08.703Z,15.50
2019-05-15T15:13:39.052Z,15.60
2019-05-15T15:16:09.268Z,15.70
2019-05-15T15:18:39.426Z,15.70
2019-05-15T15:21:09.539Z,15.60
2019-05-15T15:23:39.712Z,15.70
2019-05-15T15:26:10.181Z,15.70
2019-05-15T15:28:40.440Z,15.70
2019-05-15T15:31:10.624Z,15.70
2019-05-15T15:33:40.759Z,15.70
2019-05-15T15:36:10.957Z,15.70
2019-05-15T15:38:43.992Z,15.70
2019-05-15T15:41:12.844Z,15.80
2019-05-15T15:43:59.574Z,15.70
2019-05-15T15:46:29.772Z,15.70
2019-05-15T15:48:59.963Z,15.70
2019-05-15T15:51:34.044Z,15.70
2019-05-15T15:54:04.188Z,15.60
2019-05-15T15:56:35.209Z,15.60
2019-05-15T15:59:05.489Z,15.60
2019-05-15T16:01:36.127Z,15.40
2019-05-15T16:04:08.562Z,15.20
2019-05-15T16:06:38.973Z,15.20
2019-05-15T16:09:09.485Z,15.20
2019-05-15T16:11:40.012Z,15.20
2019-05-15T16:14:10.197Z,15.10
2019-05-15T16:16:40.319Z,15.20
2019-05-15T16:19:10.813Z,15.10
2019-05-15T16:21:40.960Z,15.20
2019-05-15T16:24:17.287Z,15.20
2019-05-15T16:26:43.155Z,15.10
2019-05-15T16:29:13.338Z,15.10
2019-05-15T16:31:43.849Z,15.20
2019-05-15T16:34:13.976Z,15.20
2019-05-15T16:36:44.128Z,15.20
2019-05-15T16:39:14.293Z,15.20
2019-05-15T16:41:44.464Z,15.10
2019-05-15T16:44:38.467Z,15.10
2019-05-15T16:47:08.864Z,15.00
2019-05-15T16:50:00.848Z,14.90
2019-05-15T16:52:31.355Z,14.90
2019-05-15T16:55:22.868Z,14.90
2019-05-15T16:57:53.058Z,14.90
2019-05-15T17:00:23.420Z,14.90
2019-05-15T17:03:08.551Z,14.90
2019-05-15T17:05:25.570Z,14.90
2019-05-15T17:07:58.177Z,14.90
2019-05-15T17:10:28.216Z,14.80
2019-05-15T17:13:01.084Z,14.80
2019-05-15T17:15:31.478Z,14.70
2019-05-15T17:18:01.637Z,14.70
2019-05-15T17:20:31.765Z,14.70
2019-05-15T17:23:01.899Z,14.70
2019-05-15T17:25:32.029Z,14.70
2019-05-15T17:28:02.240Z,14.70
2019-05-15T17:30:32.707Z,14.70
2019-05-15T17:33:02.825Z,14.70
2019-05-15T17:35:32.988Z,14.70
2019-05-15T17:38:03.250Z,14.70
2019-05-15T17:40:33.361Z,14.70
2019-05-15T17:43:03.577Z,14.70
2019-05-15T17:46:04.989Z,14.60
2019-05-15T17:48:35.132Z,14.70
2019-05-15T17:51:05.941Z,14.60
2019-05-15T17:53:38.308Z,14.70
2019-05-15T17:56:08.958Z,14.60
2019-05-15T17:58:41.074Z,14.60
2019-05-15T18:01:14.546Z,14.70
2019-05-15T18:03:44.766Z,14.60
2019-05-15T18:06:14.976Z,14.60
2019-05-15T18:08:48.511Z,14.70
2019-05-15T18:11:18.725Z,14.60
2019-05-15T18:13:49.097Z,14.60
2019-05-15T18:16:19.257Z,14.60
2019-05-15T18:18:49.979Z,14.60
2019-05-15T18:21:25.167Z,14.60
2019-05-15T18:23:54.493Z,14.50
2019-05-15T18:26:24.716Z,14.50
2019-05-15T18:28:54.924Z,14.50
2019-05-15T18:31:25.207Z,14.60
2019-05-15T18:33:55.439Z,14.60
2019-05-15T18:36:28.492Z,14.60
2019-05-15T18:38:58.959Z,14.60
2019-05-15T18:41:29.345Z,14.70
2019-05-15T18:43:59.575Z,14.70
2019-05-15T18:46:51.252Z,14.70
2019-05-15T18:49:21.429Z,14.70
2019-05-15T18:51:51.586Z,14.70
2019-05-15T18:54:21.751Z,14.80
2019-05-15T18:56:51.941Z,14.80
2019-05-15T18:59:22.082Z,14.80
2019-05-15T19:01:52.272Z,14.80
2019-05-15T19:04:22.425Z,14.70
2019-05-15T19:06:52.804Z,14.80
2019-05-15T19:09:22.946Z,14.70
2019-05-15T19:11:53.100Z,14.60
2019-05-15T19:14:23.365Z,14.70
2019-05-15T19:16:53.625Z,14.60
2019-05-15T19:19:38.762Z,14.60
2019-05-15T19:22:10.174Z,14.70
2019-05-15T19:25:00.904Z,14.70
2019-05-15T19:27:31.071Z,14.60
2019-05-15T19:30:20.301Z,14.60
2019-05-15T19:32:50.485Z,14.60
2019-05-15T19:35:20.916Z,14.60
2019-05-15T19:37:51.120Z,14.60
2019-05-15T19:40:21.345Z,14.60
2019-05-15T19:42:51.539Z,14.60
2019-05-15T19:45:21.768Z,14.50
2019-05-15T19:47:52.141Z,14.50
2019-05-15T19:50:22.609Z,14.50
2019-05-15T19:52:52.755Z,14.50
2019-05-15T19:55:22.860Z,14.50
2019-05-15T19:57:52.992Z,14.40
2019-05-15T20:00:23.344Z,14.50
2019-05-15T20:02:53.490Z,14.40
2019-05-15T20:05:23.808Z,14.40
2019-05-15T20:08:13.717Z,14.50
2019-05-15T20:10:43.849Z,14.40
2019-05-15T20:13:38.215Z,14.40
2019-05-15T20:16:07.619Z,14.40
2019-05-15T20:18:58.192Z,14.40
2019-05-15T20:21:29.025Z,14.40
2019-05-15T20:24:13.863Z,14.50
2019-05-15T20:26:43.925Z,14.50
2019-05-15T20:29:14.117Z,14.40
2019-05-15T20:31:44.270Z,14.50
2019-05-15T20:34:14.516Z,14.50
2019-05-15T20:36:45.113Z,14.40
2019-05-15T20:39:15.266Z,14.50
2019-05-15T20:41:45.384Z,14.40
2019-05-15T20:44:17.846Z,14.40
2019-05-15T20:46:50.541Z,14.40
2019-05-15T20:49:19.252Z,14.40
2019-05-15T20:51:49.836Z,14.40
2019-05-15T20:54:20.036Z,14.40
2019-05-15T20:57:02.633Z,14.50
2019-05-15T20:59:33.239Z,14.50
2019-05-15T21:02:24.249Z,14.50
2019-05-15T21:04:54.411Z,14.50
2019-05-15T21:07:35.857Z,14.50
2019-05-15T21:09:58.670Z,14.50
2019-05-15T21:12:29.842Z,14.50
2019-05-15T21:14:59.800Z,14.40
2019-05-15T21:17:29.962Z,14.40
2019-05-15T21:20:01.200Z,14.50
2019-05-15T21:22:31.633Z,14.40
2019-05-15T21:25:01.757Z,14.40
2019-05-15T21:27:33.293Z,14.30
2019-05-15T21:30:03.816Z,14.20
2019-05-15T21:32:35.129Z,14.20
2019-05-15T21:35:05.344Z,14.10
2019-05-15T21:37:35.507Z,14.20
2019-05-15T21:40:19.843Z,14.10
2019-05-15T21:42:50.174Z,14.10
2019-05-15T21:45:23.023Z,14.00
2019-05-15T21:47:53.237Z,14.00
2019-05-15T21:50:23.352Z,14.10
2019-05-15T21:52:53.605Z,14.00
2019-05-15T21:55:23.797Z,14.10
2019-05-15T21:57:54.237Z,14.10
2019-05-15T22:00:31.808Z,14.10
2019-05-15T22:15:02.696Z,14.10
2019-05-15T22:17:33.109Z,14.10
2019-05-15T22:20:03.242Z,14.10
2019-05-15T22:22:33.502Z,14.10
2019-05-15T22:25:03.724Z,14.00
2019-05-15T22:27:33.976Z,14.00
2019-05-15T22:30:05.316Z,14.00
2019-05-15T22:32:35.500Z,14.00
2019-05-15T22:35:13.448Z,14.00
2019-05-15T22:37:41.524Z,14.00
2019-05-15T22:40:11.598Z,14.10
2019-05-15T22:42:41.735Z,14.20
2019-05-15T22:45:18.506Z,14.10
2019-05-15T22:47:49.212Z,14.20
2019-05-15T22:50:31.467Z,14.20
2019-05-15T22:53:01.727Z,14.20
2019-05-15T22:55:31.850Z,14.20
2019-05-15T22:58:02.029Z,14.20
2019-05-15T23:00:32.309Z,14.20
2019-05-15T23:03:02.550Z,14.20
2019-05-15T23:05:32.640Z,14.30
2019-05-15T23:08:02.760Z,14.30
2019-05-15T23:10:32.889Z,14.30
2019-05-15T23:13:02.992Z,14.30
2019-05-15T23:15:33.388Z,14.20
2019-05-15T23:18:03.506Z,14.20
2019-05-15T23:20:33.652Z,14.20
2019-05-15T23:23:15.193Z,14.20
2019-05-15T23:25:45.301Z,14.30
2019-05-15T23:28:16.740Z,14.30
2019-05-15T23:30:48.535Z,14.10
2019-05-15T23:33:18.920Z,14.20
2019-05-15T23:35:49.124Z,14.20
2019-05-15T23:38:19.262Z,14.20
2019-05-15T23:40:49.413Z,14.20
2019-05-15T23:43:19.530Z,14.20
2019-05-15T23:45:49.677Z,14.20
2019-05-15T23:48:19.784Z,14.20
2019-05-15T23:50:49.930Z,14.20
2019-05-15T23:53:20.042Z,14.20
2019-05-15T23:55:55.144Z,14.20
2019-05-15T23:58:25.275Z,14.20
